Time;durP1;ratioP1;P1;durP2;ratioP2;P2;SDS_P1;SDS_P2;PMS_P1;PMS_P2;Temp;Humidity;BMP_temperature;BMP_pressure;BME280_temperature;BME280_humidity;BME280_pressure;Samples;Min_cycle;Max_cycle;Signal;HPM_P1;HPM_P2
2021/11/06 00:00:38;;;;;;;61.60;27.90;;;;;;;12.21;78.16;100024.25;27184;1218;3026219;-70
2021/11/06 00:03:07;;;;;;;72.10;29.40;;;;;;;12.23;77.78;100018.88;27257;1218;3026178;-74
2021/11/06 00:05:39;;;;;;;65.90;31.00;;;;;;;11.89;79.16;100027.67;27206;1218;3025880;-72
2021/11/06 00:08:08;;;;;;;71.50;29.60;;;;;;;11.59;80.67;100029.52;27203;1219;3027736;-71
2021/11/06 00:10:37;;;;;;;53.90;24.70;;;;;;;11.71;80.14;100025.35;27201;1218;3027070;-69
2021/11/06 00:13:06;;;;;;;65.50;26.80;;;;;;;12.07;79.41;100016.64;27222;1218;3051673;-66
2021/11/06 00:15:36;;;;;;;64.70;28.90;;;;;;;12.32;78.05;100014.00;27182;1218;3027467;-69
2021/11/06 00:18:05;;;;;;;76.50;31.30;;;;;;;12.17;78.50;100018.86;27231;1217;3050996;-67
2021/11/06 00:21:52;;;;;;;84.10;35.60;;;;;;;12.02;79.39;100023.23;34173;1216;3025671;-67
2021/11/06 00:24:22;;;;;;;77.20;36.50;;;;;;;11.92;79.96;100023.62;27200;1218;3026571;-71
2021/11/06 00:26:51;;;;;;;61.50;31.40;;;;;;;12.30;78.52;100012.83;27247;1216;3028105;-69
2021/11/06 00:29:20;;;;;;;72.70;31.30;;;;;;;12.34;78.36;100007.69;27198;1216;3048540;-64
2021/11/06 00:31:49;;;;;;;75.90;32.30;;;;;;;12.12;79.00;100009.30;27206;1215;3026701;-63
2021/11/06 00:34:19;;;;;;;64.10;32.20;;;;;;;11.91;80.41;100013.48;27245;1216;3026020;-65
2021/11/06 00:36:48;;;;;;;67.50;28.20;;;;;;;11.90;80.63;100012.16;27196;1216;3047952;-72
2021/11/06 00:39:17;;;;;;;56.50;23.80;;;;;;;12.38;79.54;100007.84;27252;1216;3026052;-70
2021/11/06 00:41:45;;;;;;;67.50;29.70;;;;;;;12.55;78.36;100006.27;27212;1215;3070182;-65
2021/11/06 00:44:14;;;;;;;75.10;31.70;;;;;;;12.41;78.89;100010.64;27185;1216;3029246;-68
2021/11/06 00:46:45;;;;;;;69.70;33.30;;;;;;;12.19;79.67;100011.08;27246;1215;3051391;-69
2021/11/06 00:49:14;;;;;;;65.80;30.20;;;;;;;11.90;80.82;100011.29;27206;1216;3026898;-72
2021/11/06 00:51:43;;;;;;;56.10;26.70;;;;;;;11.93;80.80;100009.14;27230;1216;3026149;-71
2021/11/06 00:54:12;;;;;;;64.60;28.70;;;;;;;12.28;79.77;100006.09;27233;1215;3049309;-70
2021/11/06 00:56:41;;;;;;;67.40;29.80;;;;;;;12.66;78.41;99996.28;27210;1216;3028126;-68
2021/11/06 00:59:10;;;;;;;70.60;30.40;;;;;;;12.42;78.84;100004.42;27220;1215;3054912;-68
2021/11/06 01:01:38;;;;;;;75.50;33.40;;;;;;;12.11;80.33;100002.70;27276;1215;3027352;-67
2021/11/06 01:04:07;;;;;;;74.60;32.40;;;;;;;11.92;81.32;100008.37;27226;1216;3048793;-68
2021/11/06 01:06:37;;;;;;;67.60;28.40;;;;;;;11.76;81.88;100010.64;27246;1216;3026558;-66
2021/11/06 01:09:06;;;;;;;66.30;29.80;;;;;;;12.07;81.54;100005.45;27248;1209;3025835;-66
2021/11/06 01:11:38;;;;;;;67.20;29.80;;;;;;;12.07;81.24;100002.75;27223;1215;3050662;-69
2021/11/06 01:14:08;;;;;;;75.30;33.80;;;;;;;12.05;81.33;100006.61;27268;1216;3026450;-69
2021/11/06 01:16:38;;;;;;;77.50;35.60;;;;;;;11.88;81.79;99995.95;27274;1215;3027145;-70
2021/11/06 01:19:07;;;;;;;71.00;28.40;;;;;;;11.76;82.60;99994.89;27262;1208;3026589;-64
2021/11/06 01:21:36;;;;;;;59.80;28.10;;;;;;;12.21;81.14;99992.68;27239;1215;3053322;-69
2021/11/06 01:24:05;;;;;;;72.60;33.60;;;;;;;12.43;80.12;99988.19;27238;1216;3026251;-72
2021/11/06 01:26:35;;;;;;;70.80;32.70;;;;;;;12.31;80.32;99987.30;27231;1215;3026549;-73
2021/11/06 01:29:04;;;;;;;81.00;34.20;;;;;;;11.90;81.87;99993.72;27259;1216;3026210;-68
2021/11/06 01:31:33;;;;;;;70.10;32.30;;;;;;;11.67;83.07;99996.06;27235;1216;3050024;-68
2021/11/06 01:34:02;;;;;;;63.30;28.80;;;;;;;11.54;83.91;99994.54;27276;1216;3026519;-69
2021/11/06 01:36:31;;;;;;;63.10;27.90;;;;;;;12.07;82.23;99991.52;27240;1216;3055151;-72
2021/11/06 01:39:00;;;;;;;63.50;31.00;;;;;;;12.41;80.66;99985.33;27258;1215;3027022;-71
2021/11/06 01:41:29;;;;;;;75.80;34.90;;;;;;;12.20;80.96;99986.05;27246;1215;3051591;-70
2021/11/06 01:43:58;;;;;;;88.60;37.90;;;;;;;11.98;81.84;99990.86;27278;1216;3026176;-68
2021/11/06 01:46:29;;;;;;;72.90;33.70;;;;;;;11.71;82.85;99992.67;27253;1216;3026135;-68
2021/11/06 01:48:58;;;;;;;51.10;25.90;;;;;;;11.74;82.93;99992.33;27209;1216;3048648;-72
2021/11/06 01:51:27;;;;;;;67.30;28.30;;;;;;;12.18;81.77;99985.83;27221;1216;3026327;-74
2021/11/06 01:53:56;;;;;;;69.00;32.10;;;;;;;12.50;80.06;99981.61;27244;1215;3055301;-66
2021/11/06 01:56:25;;;;;;;69.40;31.60;;;;;;;12.42;80.05;99984.56;27278;1216;3025796;-63
2021/11/06 01:58:54;;;;;;;75.30;34.70;;;;;;;12.20;80.93;99983.09;27252;1216;3051066;-64
2021/11/06 02:01:23;;;;;;;69.80;32.40;;;;;;;11.95;81.95;99982.56;27263;1214;3026488;-69
2021/11/06 02:03:52;;;;;;;57.30;26.30;;;;;;;11.86;82.59;99980.27;27218;1216;3026531;-68
2021/11/06 02:06:21;;;;;;;61.40;29.30;;;;;;;12.21;81.38;99974.69;27259;1215;3053735;-64
2021/11/06 02:08:50;;;;;;;52.30;25.60;;;;;;;12.42;80.50;99971.91;27242;1216;3026135;-70
2021/11/06 02:11:19;;;;;;;72.70;33.90;;;;;;;12.04;81.56;99975.92;27283;1215;3051699;-74
2021/11/06 02:13:48;;;;;;;70.30;32.40;;;;;;;12.03;82.04;99975.61;27199;1218;3026558;-68
2021/11/06 02:16:17;;;;;;;49.40;25.10;;;;;;;11.76;83.12;99980.99;27233;1216;3048498;-76
2021/11/06 02:18:47;;;;;;;55.90;27.40;;;;;;;12.13;82.18;99972.77;27266;1214;3026535;-64
2021/11/06 02:21:16;;;;;;;58.40;28.40;;;;;;;12.27;81.37;99969.30;27180;1215;3069465;-77
2021/11/06 02:23:49;;;;;;;62.50;29.60;;;;;;;12.42;80.80;99970.17;27276;1215;3025963;-65
2021/11/06 02:26:19;;;;;;;71.30;32.40;;;;;;;12.08;81.66;99973.20;27240;1215;3049152;-70
2021/11/06 02:28:53;;;;;;;48.40;26.40;;;;;;;11.91;82.71;99966.98;27260;1214;3028018;-72
2021/11/06 02:31:23;;;;;;;57.60;27.50;;;;;;;12.08;82.36;99970.60;27284;1215;3051381;-69
2021/11/06 02:33:52;;;;;;;55.50;26.60;;;;;;;12.16;81.97;99958.52;27272;1215;3028387;-63
2021/11/06 02:36:21;;;;;;;51.40;27.40;;;;;;;12.03;82.39;99966.46;27285;1215;3067517;-73
2021/11/06 02:38:51;;;;;;;64.90;29.30;;;;;;;11.94;82.77;99962.80;27255;1215;3026446;-69
2021/11/06 02:41:20;;;;;;;41.60;23.20;;;;;;;11.90;83.05;99961.42;27238;1214;3026201;-70
2021/11/06 02:43:49;;;;;;;57.70;28.80;;;;;;;12.10;82.36;99958.15;27236;1214;3069970;-62
2021/11/06 02:46:18;;;;;;;52.40;28.30;;;;;;;12.00;82.67;99956.11;27259;1214;3026194;-67
2021/11/06 02:48:47;;;;;;;57.60;30.00;;;;;;;12.03;82.80;99953.85;27262;1215;3050514;-68
2021/11/06 02:51:16;;;;;;;52.30;27.40;;;;;;;11.76;83.66;99955.19;27263;1214;3026439;-74
2021/11/06 02:53:45;;;;;;;46.40;23.30;;;;;;;11.83;83.64;99950.27;27321;1215;3054255;-67
2021/11/06 02:56:14;;;;;;;55.10;26.10;;;;;;;12.23;82.23;99946.73;27321;1216;3026479;-69
2021/11/06 02:58:43;;;;;;;53.80;27.00;;;;;;;12.33;81.56;99951.89;27273;1215;3026444;-72
2021/11/06 03:01:12;;;;;;;54.70;27.70;;;;;;;12.24;81.83;99947.89;27289;1216;3052627;-67
2021/11/06 03:03:41;;;;;;;63.20;30.80;;;;;;;12.13;81.84;99953.23;27262;1215;3026130;-69
2021/11/06 03:06:10;;;;;;;47.70;22.40;;;;;;;11.81;83.37;99957.70;27236;1215;3051294;-66
2021/11/06 03:08:39;;;;;;;50.30;25.20;;;;;;;12.16;82.67;99942.20;27290;1215;3028378;-66
2021/11/06 03:11:08;;;;;;;53.90;27.80;;;;;;;12.26;81.75;99933.02;27245;1215;3056412;-69
2021/11/06 03:13:37;;;;;;;56.10;27.30;;;;;;;12.07;82.59;99928.88;27251;1215;3026269;-65
2021/11/06 03:16:08;;;;;;;60.00;28.80;;;;;;;12.08;82.46;99932.52;27239;1215;3053618;-67
2021/11/06 03:18:37;;;;;;;46.80;24.20;;;;;;;11.90;83.10;99934.39;27291;1212;3028692;-72
2021/11/06 03:21:06;;;;;;;50.10;23.70;;;;;;;12.33;81.76;99930.11;27254;1215;3053892;-68
2021/11/06 03:23:35;;;;;;;56.00;28.20;;;;;;;12.64;80.09;99928.39;27279;1215;3026031;-69
2021/11/06 03:26:04;;;;;;;59.10;29.90;;;;;;;12.44;80.41;99929.50;27244;1215;3047644;-69
2021/11/06 03:28:33;;;;;;;63.10;31.10;;;;;;;12.12;81.37;99936.44;27262;1214;3025924;-64
2021/11/06 03:31:02;;;;;;;57.10;27.40;;;;;;;11.87;82.52;99935.43;27283;1216;3067436;-71
2021/11/06 03:33:32;;;;;;;54.50;27.10;;;;;;;11.72;83.36;99938.42;27253;1216;3026069;-64
2021/11/06 03:36:01;;;;;;;61.80;29.00;;;;;;;12.03;82.12;99937.31;27261;1215;3049760;-67
2021/11/06 03:38:30;;;;;;;55.70;30.00;;;;;;;12.07;81.80;99935.88;27229;1215;3025946;-76
2021/11/06 03:40:59;;;;;;;75.00;33.50;;;;;;;12.01;81.87;99939.92;27294;1216;3052913;-65
2021/11/06 03:43:28;;;;;;;72.20;31.30;;;;;;;11.69;83.17;99946.62;27280;1215;3026314;-74
2021/11/06 03:45:57;;;;;;;50.40;26.20;;;;;;;11.55;84.16;99947.62;27243;1215;3049201;-71
2021/11/06 03:48:28;;;;;;;48.30;26.00;;;;;;;12.04;82.42;99944.45;27243;1215;3026567;-65
2021/11/06 03:50:57;;;;;;;58.70;29.10;;;;;;;12.16;81.29;99945.00;27235;1215;3026969;-63
2021/11/06 03:53:26;;;;;;;68.70;31.20;;;;;;;12.21;81.19;99948.20;27240;1209;3026803;-75
2021/11/06 03:55:54;;;;;;;92.40;33.40;;;;;;;12.01;81.64;99947.61;27242;1214;3051425;-68
2021/11/06 03:58:23;;;;;;;54.50;25.10;;;;;;;11.78;82.69;99947.73;27285;1216;3026226;-72
2021/11/06 04:00:52;;;;;;;55.70;26.70;;;;;;;12.13;81.89;99947.13;27293;1215;3052032;-73
2021/11/06 04:03:22;;;;;;;56.60;29.90;;;;;;;12.48;80.30;99944.00;27328;1215;3026547;-73
2021/11/06 04:05:51;;;;;;;66.30;31.60;;;;;;;12.26;80.82;99946.70;27301;1209;3026077;-67
2021/11/06 04:08:21;;;;;;;58.90;31.60;;;;;;;12.00;81.60;99949.95;27258;1214;3049196;-70
2021/11/06 04:10:51;;;;;;;62.60;29.40;;;;;;;11.81;82.58;99950.54;27248;1214;3026429;-74
2021/11/06 04:13:20;;;;;;;49.10;25.20;;;;;;;11.71;83.21;99953.20;27277;1216;3026012;-69
2021/11/06 04:15:49;;;;;;;43.10;23.40;;;;;;;12.13;82.15;99949.89;27230;1215;3048909;-67
2021/11/06 04:18:20;;;;;;;49.10;26.60;;;;;;;12.50;80.09;99941.38;27280;1216;3027970;-70
2021/11/06 04:21:00;;;;;;;55.10;27.30;;;;;;;12.33;80.65;99941.56;27288;1214;3053105;-72
2021/11/06 04:23:29;;;;;;;82.00;31.00;;;;;;;12.06;81.54;99946.66;27258;1215;3025908;-73
2021/11/06 04:25:58;;;;;;;49.90;25.20;;;;;;;11.87;82.53;99948.41;27245;1214;3026235;-67
2021/11/06 04:28:27;;;;;;;46.10;24.00;;;;;;;11.74;82.84;99954.26;27259;1216;3049045;-67
2021/11/06 04:30:56;;;;;;;53.50;24.80;;;;;;;12.13;81.72;99958.00;27241;1216;3026152;-68
2021/11/06 04:33:25;;;;;;;51.10;27.00;;;;;;;12.54;80.12;99953.45;27262;1216;3052051;-70
2021/11/06 04:35:54;;;;;;;53.00;26.70;;;;;;;12.51;79.78;99951.50;27258;1216;3025611;-68
2021/11/06 04:38:23;;;;;;;59.10;26.30;;;;;;;12.26;80.77;99956.02;27237;1214;3049051;-66
2021/11/06 04:40:52;;;;;;;57.90;27.20;;;;;;;12.01;81.72;99962.73;27268;1215;3026733;-62
2021/11/06 04:43:21;;;;;;;37.90;20.50;;;;;;;11.72;83.00;99971.59;27267;1215;3054833;-73
2021/11/06 04:45:51;;;;;;;48.30;24.20;;;;;;;12.09;82.10;99970.52;27275;1215;3026390;-65
2021/11/06 04:48:20;;;;;;;52.30;25.00;;;;;;;12.54;80.29;99971.88;27268;1214;3054349;-72
2021/11/06 04:50:49;;;;;;;51.90;26.10;;;;;;;12.48;79.89;99975.23;27248;1215;3026036;-67
2021/11/06 04:53:18;;;;;;;60.90;28.50;;;;;;;12.43;79.69;99978.70;27231;1215;3026062;-71
2021/11/06 04:55:47;;;;;;;58.30;26.40;;;;;;;12.09;81.41;99984.58;27277;1216;3051217;-73
2021/11/06 04:58:17;;;;;;;37.80;20.10;;;;;;;11.91;82.34;99992.98;27250;1215;3026076;-71
2021/11/06 05:00:46;;;;;;;41.70;22.00;;;;;;;12.35;81.45;99984.08;27279;1214;3026459;-69
2021/11/06 05:03:15;;;;;;;47.20;25.90;;;;;;;12.81;78.97;99983.63;27255;1214;3028751;-66
2021/11/06 05:05:44;;;;;;;56.60;25.80;;;;;;;12.66;79.14;99989.80;27213;1215;3054044;-65
2021/11/06 05:08:13;;;;;;;54.70;26.30;;;;;;;12.42;80.02;100000.02;27223;1215;3026675;-66
2021/11/06 05:10:42;;;;;;;47.80;25.60;;;;;;;12.04;81.51;99997.66;27244;1215;3053752;-70
2021/11/06 05:13:11;;;;;;;39.90;21.90;;;;;;;11.97;81.95;99998.24;27241;1215;3026565;-69
2021/11/06 05:15:40;;;;;;;41.10;21.90;;;;;;;12.33;81.24;99993.00;27243;1214;3052044;-63
2021/11/06 05:18:13;;;;;;;51.80;26.70;;;;;;;12.60;79.95;99984.19;27275;1214;3026675;-71
2021/11/06 05:20:43;;;;;;;47.00;25.90;;;;;;;12.64;79.57;99977.44;27269;1216;3026333;-63
2021/11/06 05:23:13;;;;;;;54.30;27.70;;;;;;;12.46;80.05;99984.83;27240;1215;3027503;-71
2021/11/06 05:25:44;;;;;;;55.10;28.00;;;;;;;12.25;80.96;99997.00;27298;1215;3026750;-67
2021/11/06 05:28:13;;;;;;;33.30;19.70;;;;;;;12.12;81.56;99992.10;27289;1216;3026506;-69
2021/11/06 05:30:43;;;;;;;31.90;17.50;;;;;;;12.72;79.64;99969.72;27232;1215;3026214;-73
2021/11/06 05:33:13;;;;;;;36.80;21.00;;;;;;;12.73;78.73;99974.22;27251;1216;3026483;-71
2021/11/06 05:35:42;;;;;;;37.90;22.00;;;;;;;12.38;79.95;99989.70;27285;1215;3026993;-66
2021/11/06 05:38:11;;;;;;;51.60;24.30;;;;;;;12.13;81.02;99990.29;27243;1215;3028335;-72
2021/11/06 05:40:40;;;;;;;44.60;22.10;;;;;;;11.86;82.16;99999.59;27278;1215;3047859;-74
2021/11/06 05:43:09;;;;;;;26.10;15.70;;;;;;;11.73;82.82;100005.57;27317;1215;3026611;-64
2021/11/06 05:45:38;;;;;;;36.20;19.40;;;;;;;12.16;81.52;100009.08;27236;1215;3026255;-70
2021/11/06 05:48:12;;;;;;;37.80;21.60;;;;;;;12.27;80.52;100017.23;27222;1214;3058627;-71
2021/11/06 05:50:41;;;;;;;41.90;20.70;;;;;;;12.16;80.87;100012.46;27248;1209;3025940;-64
2021/11/06 05:53:10;;;;;;;48.60;23.50;;;;;;;12.14;80.93;100012.90;27251;1216;3052894;-66
2021/11/06 05:55:40;;;;;;;29.90;18.80;;;;;;;12.09;81.32;100015.99;27214;1216;3025637;-68
2021/11/06 05:58:09;;;;;;;30.30;16.40;;;;;;;12.63;79.08;100025.09;27207;1215;3026075;-70
2021/11/06 06:00:40;;;;;;;36.80;19.10;;;;;;;13.06;77.26;100039.75;27228;1215;3053117;-70
2021/11/06 06:03:09;;;;;;;34.30;19.40;;;;;;;12.68;78.29;100049.27;27285;1215;3026198;-71
2021/11/06 06:05:38;;;;;;;34.40;19.60;;;;;;;12.38;79.06;100046.98;27224;1215;3026066;-73
2021/11/06 06:08:08;;;;;;;37.40;19.10;;;;;;;12.17;79.93;100055.41;27262;1216;3027196;-68
2021/11/06 06:10:37;;;;;;;23.60;14.20;;;;;;;12.02;80.20;100068.54;27264;1210;3026217;-65
2021/11/06 06:13:07;;;;;;;25.60;15.10;;;;;;;12.48;78.66;100063.60;27241;1216;3051466;-69
2021/11/06 06:15:45;;;;;;;25.70;16.20;;;;;;;12.65;77.64;100062.08;27280;1215;3055670;-65
2021/11/06 06:18:14;;;;;;;31.50;16.60;;;;;;;12.08;79.09;100060.83;27281;1216;3028367;-69
2021/11/06 06:20:43;;;;;;;36.30;17.90;;;;;;;12.15;78.81;100069.21;27226;1219;3048260;-69
2021/11/06 06:23:12;;;;;;;21.00;12.90;;;;;;;12.04;79.44;100070.35;27262;1215;3029352;-71
2021/11/06 06:25:43;;;;;;;25.00;13.40;;;;;;;12.48;78.25;100075.55;27281;1216;3057865;-71
2021/11/06 06:28:12;;;;;;;29.30;15.80;;;;;;;12.76;76.90;100071.83;27259;1214;3026180;-69
2021/11/06 06:30:41;;;;;;;32.20;15.80;;;;;;;12.38;77.96;100076.35;27282;1215;3054192;-74
2021/11/06 06:33:10;;;;;;;35.90;16.00;;;;;;;12.41;77.97;100083.36;27280;1216;3026064;-64
2021/11/06 06:35:39;;;;;;;45.00;19.50;;;;;;;12.29;78.32;100086.85;27316;1215;3051440;-77
2021/11/06 06:38:08;;;;;;;20.90;13.10;;;;;;;12.20;78.73;100093.02;27293;1214;3027456;-67
2021/11/06 06:40:37;;;;;;;22.00;13.50;;;;;;;12.64;77.15;100090.60;27237;1216;3047669;-70
2021/11/06 06:43:06;;;;;;;24.10;15.30;;;;;;;12.65;77.27;100092.84;27329;1216;3026351;-70
2021/11/06 06:45:35;;;;;;;29.40;15.60;;;;;;;12.58;77.04;100088.87;27242;1214;3070115;-72
2021/11/06 06:48:04;;;;;;;45.70;14.40;;;;;;;12.42;77.50;100091.39;27261;1214;3026252;-72
2021/11/06 06:50:34;;;;;;;33.00;15.70;;;;;;;12.05;78.96;100101.38;27304;1215;3050046;-72
2021/11/06 06:53:03;;;;;;;17.80;11.50;;;;;;;11.89;80.19;100106.31;27261;1214;3028184;-71
2021/11/06 06:55:32;;;;;;;20.00;11.80;;;;;;;12.61;78.00;100101.66;27280;1214;3054025;-66
2021/11/06 06:58:01;;;;;;;21.80;14.40;;;;;;;12.86;76.47;100096.52;27271;1215;3025587;-66
2021/11/06 07:00:30;;;;;;;23.30;13.40;;;;;;;12.93;76.47;100103.28;27216;1216;3051590;-67
2021/11/06 07:02:59;;;;;;;23.80;12.40;;;;;;;12.88;76.19;100101.83;27266;1216;3025892;-73
2021/11/06 07:05:30;;;;;;;30.20;13.50;;;;;;;12.63;76.86;100096.46;27340;1214;3057723;-71
2021/11/06 07:08:00;;;;;;;19.40;11.20;;;;;;;12.42;78.03;100104.02;27412;1215;3026142;-74
2021/11/06 07:10:29;;;;;;;19.60;10.60;;;;;;;12.82;77.33;100105.02;27409;1209;3026405;-72
2021/11/06 07:12:58;;;;;;;22.00;11.60;;;;;;;13.28;75.62;100101.89;27435;1214;3055362;-68
2021/11/06 07:15:40;;;;;;;20.20;12.50;;;;;;;13.36;74.85;100092.45;27392;1214;3051996;-73
2021/11/06 07:18:10;;;;;;;23.20;13.80;;;;;;;13.17;75.42;100085.14;27407;1216;3027823;-70
2021/11/06 07:20:39;;;;;;;32.30;16.50;;;;;;;12.94;76.19;100083.38;27374;1216;3027842;-68
2021/11/06 07:23:08;;;;;;;20.60;12.80;;;;;;;12.57;77.73;100084.70;27296;1215;3048789;-64
2021/11/06 07:25:37;;;;;;;21.60;12.10;;;;;;;12.71;77.88;100077.38;27444;1215;3026326;-69
2021/11/06 07:28:06;;;;;;;26.80;14.10;;;;;;;13.04;76.79;100063.10;27399;1210;3025975;-68
2021/11/06 07:30:35;;;;;;;31.10;16.50;;;;;;;12.96;77.19;100056.35;27267;1215;3048318;-77
2021/11/06 07:33:04;;;;;;;26.20;15.30;;;;;;;12.88;77.71;100053.34;27646;1209;3027381;-68
2021/11/06 07:35:34;;;;;;;28.90;17.00;;;;;;;12.66;78.50;100046.57;27398;1215;3058371;-73
2021/11/06 07:38:03;;;;;;;26.90;13.70;;;;;;;12.50;79.45;100045.25;27235;1215;3026884;-67
2021/11/06 07:40:32;;;;;;;33.00;16.20;;;;;;;12.75;78.95;100035.30;27286;1215;3051990;-70
2021/11/06 07:43:02;;;;;;;39.80;17.90;;;;;;;13.15;77.34;100026.18;27240;1215;3026091;-70
2021/11/06 07:45:33;;;;;;;46.80;19.60;;;;;;;13.08;77.23;100028.72;27287;1216;3051191;-68
2021/11/06 07:48:02;;;;;;;45.80;20.70;;;;;;;12.87;78.30;100030.32;27270;1216;3026967;-73
2021/11/06 07:50:31;;;;;;;47.60;22.20;;;;;;;12.67;78.96;100030.67;27241;1216;3025947;-67
2021/11/06 07:53:01;;;;;;;38.60;18.50;;;;;;;12.48;80.17;100034.81;27263;1216;3026374;-66
2021/11/06 07:55:30;;;;;;;43.20;20.00;;;;;;;12.88;79.17;100030.80;27282;1216;3054447;-68
2021/11/06 07:57:59;;;;;;;47.70;21.20;;;;;;;12.93;77.86;100034.19;27252;1216;3027567;-73
2021/11/06 08:00:28;;;;;;;65.60;23.80;;;;;;;12.85;78.79;100035.91;27253;1216;3051293;-68
2021/11/06 08:02:57;;;;;;;49.80;23.60;;;;;;;12.76;79.08;100031.71;27284;1216;3026244;-70
2021/11/06 08:05:26;;;;;;;50.50;21.40;;;;;;;12.52;79.97;100032.46;27227;1216;3050879;-67
2021/11/06 08:07:55;;;;;;;42.80;19.50;;;;;;;12.44;80.51;100031.86;27256;1216;3026619;-67
2021/11/06 08:10:26;;;;;;;41.30;19.20;;;;;;;12.81;79.72;100035.46;27220;1203;3025882;-69
2021/11/06 08:12:59;;;;;;;38.40;19.50;;;;;;;13.18;78.12;100035.30;27260;1216;3048558;-67
2021/11/06 08:15:28;;;;;;;52.70;20.80;;;;;;;13.05;78.30;100041.91;27294;1216;3026004;-75
2021/11/06 08:18:00;;;;;;;51.90;22.40;;;;;;;12.87;79.06;100041.63;27238;1216;3027016;-68
2021/11/06 08:20:29;;;;;;;50.50;20.60;;;;;;;12.92;79.15;100047.48;27284;1216;3026503;-72
2021/11/06 08:22:58;;;;;;;48.10;19.00;;;;;;;12.99;79.05;100047.91;27265;1216;3051503;-72
2021/11/06 08:25:27;;;;;;;44.80;17.70;;;;;;;13.45;77.61;100046.99;27278;1215;3026035;-68
2021/11/06 08:27:56;;;;;;;41.90;17.70;;;;;;;14.13;75.39;100044.58;27268;1215;3050306;-68
2021/11/06 08:30:25;;;;;;;39.80;19.70;;;;;;;13.49;76.68;100048.72;27274;1209;3026048;-72
2021/11/06 08:32:55;;;;;;;41.90;20.20;;;;;;;13.06;78.66;100054.52;27268;1215;3070620;-72
2021/11/06 08:35:28;;;;;;;36.50;17.80;;;;;;;13.14;78.55;100057.90;27272;1215;3025996;-69
2021/11/06 08:37:58;;;;;;;26.90;14.80;;;;;;;13.26;78.12;100055.06;27316;1215;3053462;-77
2021/11/06 08:40:28;;;;;;;26.70;15.30;;;;;;;13.64;76.81;100058.66;27222;1215;3030223;-72
2021/11/06 08:42:57;;;;;;;31.10;16.90;;;;;;;13.96;75.44;100052.95;27281;1215;3025928;-68
2021/11/06 08:45:26;;;;;;;40.30;19.00;;;;;;;14.02;75.18;100047.27;27275;1216;3026037;-69
2021/11/06 08:47:56;;;;;;;37.60;17.80;;;;;;;13.75;76.17;100047.96;27354;1216;3028046;-67
2021/11/06 08:50:26;;;;;;;37.90;18.80;;;;;;;13.29;78.06;100054.16;27568;1216;3058792;-74
2021/11/06 08:52:56;;;;;;;29.30;15.00;;;;;;;13.24;78.58;100054.48;28178;1216;3025686;-71
2021/11/06 08:55:25;;;;;;;27.10;13.90;;;;;;;13.90;77.19;100054.53;27683;1209;3027298;-67
2021/11/06 08:57:54;;;;;;;32.40;16.20;;;;;;;14.48;74.36;100047.55;27591;1216;3055537;-65
2021/11/06 09:00:34;;;;;;;30.30;16.30;;;;;;;14.15;74.97;100047.64;27242;1216;3026348;-65
2021/11/06 09:03:06;;;;;;;32.40;16.40;;;;;;;13.93;75.95;100048.89;27246;1216;3053065;-70
2021/11/06 09:05:36;;;;;;;32.80;16.30;;;;;;;13.63;76.88;100052.92;27260;1218;3026083;-75
2021/11/06 09:08:06;;;;;;;33.20;13.80;;;;;;;13.58;77.40;100057.48;27256;1217;3025921;-71
2021/11/06 09:10:35;;;;;;;29.70;12.80;;;;;;;14.05;76.57;100050.02;27238;1218;3026509;-69
2021/11/06 09:13:04;;;;;;;28.80;14.80;;;;;;;14.52;74.46;100042.55;27263;1218;3054842;-68
2021/11/06 09:15:34;;;;;;;38.30;16.00;;;;;;;14.55;74.25;100043.70;27224;1217;3026072;-68
2021/11/06 09:18:03;;;;;;;35.90;17.20;;;;;;;14.35;74.85;100038.05;27287;1217;3026777;-69
2021/11/06 09:20:33;;;;;;;37.60;18.10;;;;;;;14.06;75.56;100045.72;27273;1217;3057291;-70
2021/11/06 09:23:02;;;;;;;28.20;13.90;;;;;;;13.71;77.08;100054.71;27244;1218;3026393;-73
2021/11/06 09:25:31;;;;;;;34.20;14.50;;;;;;;14.15;76.19;100052.02;27315;1213;3026203;-71
2021/11/06 09:28:00;;;;;;;34.40;17.70;;;;;;;14.52;74.63;100047.80;27299;1217;3026437;-69
2021/11/06 09:30:30;;;;;;;33.80;17.20;;;;;;;14.35;75.02;100046.69;27261;1217;3051637;-69
2021/11/06 09:32:59;;;;;;;46.20;18.80;;;;;;;14.33;75.11;100039.01;27271;1208;3028318;-71
2021/11/06 09:35:29;;;;;;;41.50;19.00;;;;;;;14.19;75.26;100049.34;27458;1217;3028040;-65
2021/11/06 09:37:58;;;;;;;30.60;15.10;;;;;;;14.04;75.76;100053.26;27622;1218;3026292;-67
2021/11/06 09:40:27;;;;;;;33.00;15.70;;;;;;;14.29;75.63;100050.25;27463;1217;3054164;-67
2021/11/06 09:42:56;;;;;;;44.40;21.00;;;;;;;14.46;74.95;100052.27;27532;1208;3026367;-66
2021/11/06 09:45:25;;;;;;;37.40;21.10;;;;;;;14.45;74.73;100062.36;27368;1217;3048370;-71
2021/11/06 09:47:54;;;;;;;44.90;25.20;;;;;;;14.12;75.66;100061.79;27353;1217;3028665;-65
2021/11/06 09:50:23;;;;;;;46.30;25.80;;;;;;;14.01;75.86;100063.51;27536;1217;3058350;-67
2021/11/06 09:52:53;;;;;;;35.00;18.40;;;;;;;13.99;75.94;100060.67;27668;1216;3026314;-64
2021/11/06 09:55:23;;;;;;;47.10;23.20;;;;;;;14.39;75.73;100052.87;27500;1216;3051904;-66
2021/11/06 09:57:53;;;;;;;35.10;18.60;;;;;;;14.62;74.74;100064.06;27706;1216;3025623;-65
2021/11/06 10:00:24;;;;;;;46.10;25.50;;;;;;;14.75;73.96;100064.93;27690;1216;3051801;-63
2021/11/06 10:02:54;;;;;;;37.70;20.80;;;;;;;14.32;75.31;100070.64;27680;1217;3026412;-64
2021/11/06 10:05:52;;;;;;;32.10;18.00;;;;;;;14.15;75.71;100084.26;27651;1217;3027086;-63
2021/11/06 10:08:38;;;;;;;29.20;15.40;;;;;;;14.11;76.17;100069.38;27576;1217;3053234;-62
2021/11/06 10:11:12;;;;;;;34.10;18.80;;;;;;;14.52;75.16;100064.00;27676;1218;3053066;-65
2021/11/06 10:13:55;;;;;;;30.40;17.40;;;;;;;14.42;75.31;100058.55;27713;1217;3051534;-66
2021/11/06 10:16:46;;;;;;;28.90;15.90;;;;;;;14.29;75.16;100054.30;27640;1217;3068219;-64
2021/11/06 10:19:26;;;;;;;30.40;16.60;;;;;;;14.08;75.92;100046.86;27620;1218;3048587;-69
2021/11/06 10:22:13;;;;;;;18.50;9.80;;;;;;;13.78;77.20;100054.08;27592;1217;3051776;-67
2021/11/06 10:24:47;;;;;;;22.10;11.70;;;;;;;14.51;75.26;100043.48;27229;1218;3051856;-71
2021/11/06 10:27:23;;;;;;;27.90;13.00;;;;;;;14.58;74.65;100041.05;27238;1218;3057063;-72
2021/11/06 10:30:09;;;;;;;23.00;12.20;;;;;;;14.51;74.76;100039.42;27232;1217;3049479;-67
2021/11/06 10:32:43;;;;;;;27.40;13.70;;;;;;;14.27;75.15;100037.16;27253;1218;3052877;-69
2021/11/06 10:35:17;;;;;;;25.30;13.90;;;;;;;13.94;76.54;100048.83;27260;1218;3050029;-65
2021/11/06 10:37:47;;;;;;;18.10;10.20;;;;;;;13.65;77.44;100043.29;27206;1217;3069861;-65
2021/11/06 10:40:19;;;;;;;22.20;11.70;;;;;;;14.15;76.44;100034.20;27247;1218;3026636;-74
2021/11/06 10:42:53;;;;;;;30.30;15.10;;;;;;;14.57;74.75;100039.69;27311;1218;3027494;-71
2021/11/06 10:45:24;;;;;;;33.30;16.80;;;;;;;14.62;73.89;100040.81;27301;1218;3054493;-67
2021/11/06 10:48:06;;;;;;;37.30;21.50;;;;;;;14.06;75.70;100039.95;27233;1217;3025957;-65
2021/11/06 10:51:04;;;;;;;42.90;21.40;;;;;;;13.72;77.30;100035.30;27274;1219;3052806;-66
2021/11/06 10:53:35;;;;;;;26.20;13.30;;;;;;;13.38;78.18;100041.34;27287;1218;3052198;-68
2021/11/06 10:56:14;;;;;;;31.80;14.20;;;;;;;13.86;76.70;100027.71;27245;1217;3053778;-70
2021/11/06 10:58:44;;;;;;;28.80;14.70;;;;;;;14.04;74.89;100025.13;27225;1218;3067841;-73
2021/11/06 11:01:18;;;;;;;27.70;15.90;;;;;;;13.70;74.74;100036.12;27273;1218;3026261;-67
2021/11/06 11:03:48;;;;;;;32.80;16.10;;;;;;;13.47;75.60;100027.73;27286;1214;3054248;-72
2021/11/06 11:06:19;;;;;;;29.60;14.50;;;;;;;13.37;75.73;100026.44;27254;1218;3028309;-67
2021/11/06 11:08:49;;;;;;;17.90;8.60;;;;;;;13.12;76.36;100038.84;27253;1217;3026440;-64
2021/11/06 11:11:21;;;;;;;12.90;7.20;;;;;;;13.23;75.47;100032.52;27269;1217;3026073;-73